createdAt,value
2023-03-21T00:00:40.296Z,41.12
2023-03-21T00:01:40.297Z,39.10
2023-03-21T00:02:40.273Z,43.73
2023-03-21T00:03:40.273Z,39.33
2023-03-21T00:04:50.956Z,40.92
2023-03-21T00:05:42.429Z,41.46
2023-03-21T00:06:40.242Z,44.23
2023-03-21T00:07:40.226Z,41.93
2023-03-21T00:08:40.268Z,45.51
2023-03-21T00:09:40.238Z,43.81
2023-03-21T00:10:42.153Z,44.44
2023-03-21T00:11:41.226Z,41.53
2023-03-21T00:12:40.189Z,38.48
2023-03-21T00:13:40.183Z,41.96
2023-03-21T00:14:40.190Z,47.04
2023-03-21T00:15:48.414Z,44.13
2023-03-21T00:16:42.212Z,45.74
2023-03-21T00:17:40.147Z,43.41
2023-03-21T00:18:40.130Z,43.66
2023-03-21T00:19:40.153Z,38.67
2023-03-21T00:20:40.114Z,43.42
2023-03-21T00:21:55.277Z,42.44
2023-03-21T00:22:42.113Z,42.59
2023-03-21T00:23:40.115Z,41.93
2023-03-21T00:24:40.117Z,38.50
2023-03-21T00:25:40.327Z,44.76
2023-03-21T00:26:40.087Z,43.16
2023-03-21T00:27:56.934Z,42.25
2023-03-21T00:28:42.071Z,45.40
2023-03-21T00:29:40.074Z,42.00
2023-03-21T00:30:40.047Z,42.61
2023-03-21T00:31:40.129Z,40.92
2023-03-21T00:32:53.302Z,40.58
2023-03-21T00:33:42.064Z,45.99
2023-03-21T00:34:43.364Z,51.57
2023-03-21T00:36:06.451Z,45.13
2023-03-21T00:36:42.059Z,48.83
2023-03-21T00:37:39.986Z,61.72
2023-03-21T00:38:40.013Z,45.34
2023-03-21T00:39:40.035Z,40.75
2023-03-21T00:40:48.743Z,52.98
2023-03-21T00:41:43.445Z,38.67
2023-03-21T00:42:40.962Z,38.55
2023-03-21T00:43:39.952Z,38.44
2023-03-21T00:44:39.969Z,44.35
2023-03-21T00:45:39.939Z,38.95
2023-03-21T00:46:47.321Z,56.28
2023-03-21T00:47:41.976Z,40.74
2023-03-21T00:48:39.912Z,43.27
2023-03-21T00:49:39.934Z,38.47
2023-03-21T00:50:39.896Z,47.23
2023-03-21T00:51:39.897Z,51.12
2023-03-21T00:52:41.319Z,41.94
2023-03-21T00:53:40.867Z,53.90
2023-03-21T00:54:39.901Z,43.93
2023-03-21T00:55:39.862Z,39.45
2023-03-21T00:56:39.859Z,45.84
2023-03-21T00:57:39.920Z,42.34
2023-03-21T00:58:40.834Z,42.63
2023-03-21T00:59:39.857Z,38.60
2023-03-21T01:00:39.913Z,38.84
2023-03-21T01:01:39.862Z,40.99
2023-03-21T01:02:40.797Z,38.84
2023-03-21T01:03:39.804Z,38.64
2023-03-21T01:04:39.845Z,41.03
2023-03-21T01:05:39.792Z,42.20
2023-03-21T01:06:39.787Z,38.60
2023-03-21T01:07:39.764Z,46.49
2023-03-21T01:08:52.109Z,47.45
2023-03-21T01:09:41.777Z,46.43
2023-03-21T01:10:39.757Z,48.85
2023-03-21T01:11:39.732Z,39.13
2023-03-21T01:12:39.721Z,47.97
2023-03-21T01:13:47.579Z,41.09
2023-03-21T01:14:41.737Z,38.97
2023-03-21T01:15:39.709Z,46.74
2023-03-21T01:16:39.721Z,48.08
2023-03-21T01:17:39.688Z,45.90
2023-03-21T01:18:39.678Z,39.39
2023-03-21T01:19:51.168Z,50.26
2023-03-21T01:20:41.669Z,38.59
2023-03-21T01:21:39.686Z,40.91
2023-03-21T01:22:39.642Z,42.17
2023-03-21T01:23:39.637Z,50.22
2023-03-21T01:24:50.245Z,46.25
2023-03-21T01:25:41.633Z,38.95
2023-03-21T01:26:39.643Z,48.64
2023-03-21T01:27:39.610Z,40.07
2023-03-21T01:28:39.615Z,47.69
2023-03-21T01:29:39.658Z,39.12
2023-03-21T01:30:41.985Z,45.71
2023-03-21T01:31:40.631Z,44.12
2023-03-21T01:32:39.577Z,44.14
2023-03-21T01:33:39.590Z,41.97
2023-03-21T01:34:39.588Z,42.35
2023-03-21T01:35:49.125Z,43.30
2023-03-21T01:36:41.601Z,39.34
2023-03-21T01:37:39.535Z,39.34
2023-03-21T01:38:39.526Z,55.29
2023-03-21T01:39:39.507Z,43.14
2023-03-21T01:40:39.532Z,49.81
2023-03-21T01:41:43.368Z,40.40
2023-03-21T01:42:40.493Z,42.21
2023-03-21T01:43:39.511Z,56.58
2023-03-21T01:44:39.457Z,45.91
2023-03-21T01:45:40.617Z,46.74
2023-03-21T01:46:51.549Z,43.03
2023-03-21T01:47:41.490Z,58.07
2023-03-21T01:48:39.446Z,46.56
2023-03-21T01:49:39.433Z,38.60
2023-03-21T01:50:39.448Z,43.65
2023-03-21T01:51:39.422Z,44.02
2023-03-21T01:52:39.569Z,52.46
2023-03-21T01:53:39.439Z,41.61
2023-03-21T01:54:39.421Z,41.99
2023-03-21T01:55:39.751Z,41.81
2023-03-21T01:56:39.390Z,56.03
2023-03-21T01:57:43.844Z,43.89
2023-03-21T01:58:41.398Z,43.32
2023-03-21T01:59:39.358Z,47.32
2023-03-21T02:00:39.412Z,48.67
2023-03-21T02:01:39.367Z,42.94
2023-03-21T02:02:39.338Z,41.64
2023-03-21T02:03:39.361Z,39.09
2023-03-21T02:04:39.329Z,42.14
2023-03-21T02:05:39.648Z,45.57
2023-03-21T02:06:39.297Z,42.21
2023-03-21T02:07:40.301Z,44.82
2023-03-21T02:08:40.080Z,42.18
2023-03-21T02:09:40.356Z,39.64
2023-03-21T02:10:39.700Z,43.52
2023-03-21T02:11:39.286Z,46.62
2023-03-21T02:12:39.258Z,41.37
2023-03-21T02:13:39.284Z,46.09
2023-03-21T02:14:39.254Z,43.36
2023-03-21T02:15:39.318Z,46.38
2023-03-21T02:16:39.244Z,40.01
2023-03-21T02:17:39.230Z,45.20
2023-03-21T02:18:39.198Z,39.35
2023-03-21T02:19:47.680Z,54.94
2023-03-21T02:20:41.216Z,44.64
2023-03-21T02:21:39.188Z,47.53
2023-03-21T02:22:39.183Z,43.46
2023-03-21T02:23:39.167Z,39.00
2023-03-21T02:24:40.028Z,38.76
2023-03-21T02:25:39.513Z,41.76
2023-03-21T02:26:42.482Z,40.96
2023-03-21T02:27:40.137Z,47.14
2023-03-21T02:28:39.248Z,41.69
2023-03-21T02:29:39.122Z,39.60
2023-03-21T02:30:50.867Z,43.76
2023-03-21T02:31:41.161Z,55.29
2023-03-21T02:32:39.185Z,42.95
2023-03-21T02:33:39.098Z,39.37
2023-03-21T02:34:39.114Z,40.28
2023-03-21T02:35:46.979Z,49.39
2023-03-21T02:36:41.100Z,56.55
2023-03-21T02:37:39.333Z,44.44
2023-03-21T02:38:39.064Z,45.38
2023-03-21T02:39:39.038Z,40.79
2023-03-21T02:40:39.442Z,45.56
2023-03-21T02:41:40.288Z,46.30
2023-03-21T02:42:41.064Z,46.84
2023-03-21T02:43:39.012Z,46.10
2023-03-21T02:44:39.015Z,42.97
2023-03-21T02:45:39.025Z,41.55
2023-03-21T02:46:45.424Z,41.40
2023-03-21T02:47:41.039Z,45.69
2023-03-21T02:48:50.264Z,39.37
2023-03-21T02:49:40.968Z,38.99
2023-03-21T02:50:39.201Z,44.04
2023-03-21T02:51:38.955Z,45.87
2023-03-21T02:52:39.830Z,41.21
2023-03-21T02:53:39.957Z,43.50
2023-03-21T02:54:47.943Z,39.28
2023-03-21T02:55:40.969Z,42.60
2023-03-21T02:56:38.905Z,41.65
2023-03-21T02:57:43.127Z,39.23
2023-03-21T02:58:39.896Z,48.86
2023-03-21T02:59:44.469Z,39.07
2023-03-21T03:00:40.885Z,41.26
2023-03-21T03:01:38.992Z,42.56
2023-03-21T03:02:38.868Z,39.03
2023-03-21T03:03:38.892Z,45.68
2023-03-21T03:04:38.902Z,43.23
2023-03-21T03:05:38.909Z,45.13
2023-03-21T03:06:38.866Z,47.71
2023-03-21T03:07:38.836Z,46.84
2023-03-21T03:08:47.580Z,42.91
2023-03-21T03:09:40.827Z,39.22
2023-03-21T03:10:38.989Z,39.08
2023-03-21T03:11:38.826Z,38.94
2023-03-21T03:12:38.780Z,43.68
2023-03-21T03:13:38.780Z,47.17
2023-03-21T03:15:00.126Z,41.60
2023-03-21T03:15:40.788Z,51.95
2023-03-21T03:16:38.781Z,46.60
2023-03-21T03:17:38.753Z,47.21
2023-03-21T03:18:38.768Z,44.98
2023-03-21T03:19:49.396Z,42.63
2023-03-21T03:20:40.763Z,44.52
2023-03-21T03:21:38.750Z,41.30
2023-03-21T03:22:38.713Z,42.17
2023-03-21T03:23:38.702Z,42.73
2023-03-21T03:24:38.693Z,48.18
2023-03-21T03:25:43.016Z,43.85
2023-03-21T03:26:39.712Z,46.85
2023-03-21T03:27:38.780Z,46.06
2023-03-21T03:28:38.662Z,55.40
2023-03-21T03:29:38.664Z,47.14
2023-03-21T03:30:46.507Z,43.22
2023-03-21T03:31:40.836Z,44.80
2023-03-21T03:32:38.628Z,48.03
2023-03-21T03:33:38.635Z,41.91
2023-03-21T03:34:38.615Z,45.46
2023-03-21T03:35:38.657Z,44.52
2023-03-21T03:36:38.673Z,56.56
2023-03-21T03:37:38.603Z,56.44
2023-03-21T03:38:38.581Z,42.34
2023-03-21T03:39:39.361Z,45.22
2023-03-21T03:40:38.840Z,49.69
2023-03-21T03:42:03.045Z,49.62
2023-03-21T03:42:40.610Z,50.96
2023-03-21T03:43:38.540Z,45.11
2023-03-21T03:44:38.538Z,44.79
2023-03-21T03:45:38.532Z,47.81
2023-03-21T03:46:38.602Z,49.32
2023-03-21T03:47:50.678Z,43.50
2023-03-21T03:48:40.562Z,42.82
2023-03-21T03:49:38.495Z,46.56
2023-03-21T03:50:38.756Z,47.83
2023-03-21T03:51:38.548Z,47.53
2023-03-21T03:52:50.087Z,45.46
2023-03-21T03:53:40.468Z,42.00
2023-03-21T03:54:38.472Z,47.99
2023-03-21T03:55:38.454Z,45.53
2023-03-21T03:56:38.441Z,47.33
2023-03-21T03:57:38.468Z,41.87
2023-03-21T03:58:45.229Z,52.87
2023-03-21T03:59:40.421Z,50.52
2023-03-21T04:00:38.679Z,55.35
2023-03-21T04:01:38.476Z,46.11
2023-03-21T04:02:38.475Z,43.66
2023-03-21T04:03:48.497Z,57.28
2023-03-21T04:04:40.428Z,50.90
2023-03-21T04:05:38.387Z,45.41
2023-03-21T04:06:38.369Z,51.52
2023-03-21T04:07:38.393Z,55.13
2023-03-21T04:08:38.362Z,51.53
2023-03-21T04:09:44.627Z,47.54
2023-03-21T04:10:40.346Z,47.31
2023-03-21T04:11:38.325Z,53.88
2023-03-21T04:12:38.349Z,48.45
2023-03-21T04:13:38.420Z,44.18
2023-03-21T04:14:44.418Z,51.02
2023-03-21T04:15:40.304Z,56.51
2023-03-21T04:16:38.370Z,46.34
2023-03-21T04:17:38.310Z,48.74
2023-03-21T04:18:38.294Z,55.26
2023-03-21T04:19:38.267Z,55.89
2023-03-21T04:20:38.255Z,47.91
2023-03-21T04:21:38.283Z,48.75
2023-03-21T04:22:38.265Z,56.31
2023-03-21T04:23:38.243Z,52.30
2023-03-21T04:24:38.275Z,52.17
2023-03-21T04:25:44.566Z,58.34
2023-03-21T04:26:40.209Z,51.90
2023-03-21T04:27:38.230Z,53.01
2023-03-21T04:28:38.192Z,51.94
2023-03-21T04:29:38.193Z,50.15
2023-03-21T04:30:38.715Z,52.16
2023-03-21T04:31:38.224Z,53.84
2023-03-21T04:32:38.192Z,60.37
2023-03-21T04:33:38.178Z,57.73
2023-03-21T04:34:38.145Z,52.17
2023-03-21T04:35:38.216Z,55.72
2023-03-21T04:36:38.156Z,56.30
2023-03-21T04:37:38.154Z,56.45
2023-03-21T04:38:38.126Z,59.44
2023-03-21T04:39:38.131Z,51.07
2023-03-21T04:40:38.329Z,52.85
2023-03-21T04:41:38.106Z,56.46
2023-03-21T04:42:38.118Z,58.66
2023-03-21T04:43:38.082Z,53.72
2023-03-21T04:44:38.070Z,53.50
2023-03-21T04:45:38.071Z,54.38
2023-03-21T04:46:38.069Z,63.87
2023-03-21T04:47:38.099Z,58.06
2023-03-21T04:48:38.034Z,57.69
2023-03-21T04:49:38.032Z,56.90
2023-03-21T04:50:38.349Z,58.60
2023-03-21T04:51:38.057Z,58.43
2023-03-21T04:52:38.033Z,57.45
2023-03-21T04:53:38.016Z,60.00
2023-03-21T04:54:37.998Z,59.44
2023-03-21T04:55:38.258Z,59.03
2023-03-21T04:56:38.059Z,58.88
2023-03-21T04:57:37.992Z,56.90
2023-03-21T04:58:38.004Z,58.73
2023-03-21T04:59:38.009Z,60.18
2023-03-21T05:00:37.955Z,60.28
2023-03-21T05:01:37.979Z,56.83
2023-03-21T05:02:37.975Z,54.62
2023-03-21T05:03:39.084Z,52.21
2023-03-21T05:04:37.961Z,55.63
2023-03-21T05:05:38.143Z,49.94
2023-03-21T05:06:37.897Z,52.96
2023-03-21T05:07:37.923Z,54.81
2023-03-21T05:08:37.884Z,53.30
2023-03-21T05:09:37.886Z,55.50
2023-03-21T05:10:37.878Z,53.43
2023-03-21T05:11:37.972Z,54.38
2023-03-21T05:12:37.882Z,56.90
2023-03-21T05:13:37.882Z,54.62
2023-03-21T05:14:37.851Z,54.40
2023-03-21T05:15:38.214Z,50.41
2023-03-21T05:16:37.853Z,52.76
2023-03-21T05:17:37.843Z,53.09
2023-03-21T05:18:37.815Z,60.22
2023-03-21T05:19:37.808Z,57.10
2023-03-21T05:20:37.801Z,54.55
2023-03-21T05:21:37.896Z,52.34
2023-03-21T05:22:37.808Z,55.83
2023-03-21T05:23:37.775Z,52.82
2023-03-21T05:24:37.765Z,54.45
2023-03-21T05:25:38.041Z,55.68
2023-03-21T05:26:37.812Z,56.39
2023-03-21T05:27:37.778Z,55.51
2023-03-21T05:28:38.726Z,55.23
2023-03-21T05:29:37.729Z,55.12
2023-03-21T05:30:37.819Z,56.72
2023-03-21T05:31:37.752Z,57.07
2023-03-21T05:32:37.701Z,58.59
2023-03-21T05:33:37.729Z,56.82
2023-03-21T05:34:37.678Z,54.70
2023-03-21T05:35:37.980Z,56.39
2023-03-21T05:36:37.665Z,56.94
2023-03-21T05:37:37.659Z,53.28
2023-03-21T05:38:37.681Z,60.55
2023-03-21T05:39:37.665Z,58.28
2023-03-21T05:40:37.639Z,57.22
2023-03-21T05:41:37.620Z,52.74
2023-03-21T05:42:37.622Z,55.99
2023-03-21T05:43:37.653Z,61.29
2023-03-21T05:44:37.614Z,58.62
2023-03-21T05:45:37.876Z,58.03
2023-03-21T05:46:37.621Z,57.76
2023-03-21T05:47:37.578Z,55.84
2023-03-21T05:48:37.603Z,58.56
2023-03-21T05:49:37.595Z,56.25
2023-03-21T05:50:37.552Z,52.17
2023-03-21T05:51:37.554Z,56.38
2023-03-21T05:52:37.550Z,54.91
2023-03-21T05:53:37.564Z,53.80
2023-03-21T05:54:37.534Z,55.36
2023-03-21T05:55:37.794Z,57.07
2023-03-21T05:56:37.516Z,56.74
2023-03-21T05:57:37.509Z,62.44
2023-03-21T05:58:37.529Z,57.44
2023-03-21T05:59:37.494Z,55.01
2023-03-21T06:00:37.484Z,54.94
2023-03-21T06:01:37.482Z,47.63
2023-03-21T06:02:37.525Z,56.88
2023-03-21T06:03:37.591Z,56.29
2023-03-21T06:04:37.467Z,56.49
2023-03-21T06:05:38.762Z,61.30
2023-03-21T06:06:37.443Z,54.51
2023-03-21T06:07:37.427Z,55.35
2023-03-21T06:08:37.455Z,56.95
2023-03-21T06:09:37.411Z,58.49
2023-03-21T06:10:37.443Z,55.81
2023-03-21T06:11:37.409Z,56.80
2023-03-21T06:12:37.403Z,55.71
2023-03-21T06:13:37.422Z,56.98
2023-03-21T06:14:37.382Z,55.20
2023-03-21T06:15:37.542Z,55.92
2023-03-21T06:16:37.416Z,57.29
2023-03-21T06:17:37.389Z,53.61
2023-03-21T06:18:37.382Z,59.64
2023-03-21T06:19:37.365Z,57.93
2023-03-21T06:20:37.346Z,56.71
2023-03-21T06:21:38.331Z,57.87
2023-03-21T06:22:37.330Z,57.40
2023-03-21T06:23:37.338Z,55.91
2023-03-21T06:24:37.303Z,57.11
2023-03-21T06:25:37.512Z,54.42
2023-03-21T06:26:37.351Z,54.41
2023-03-21T06:27:37.288Z,60.52
2023-03-21T06:28:37.317Z,57.34
2023-03-21T06:29:37.266Z,56.77
2023-03-21T06:30:37.259Z,54.66
2023-03-21T06:31:37.296Z,58.34
2023-03-21T06:32:37.264Z,59.26
2023-03-21T06:33:37.262Z,55.14
2023-03-21T06:34:39.385Z,55.79
2023-03-21T06:35:37.464Z,59.80
2023-03-21T06:36:37.246Z,55.20
2023-03-21T06:37:37.219Z,56.46
2023-03-21T06:38:37.218Z,57.85
2023-03-21T06:39:37.182Z,56.36
2023-03-21T06:40:37.172Z,55.25
2023-03-21T06:41:37.168Z,56.90
2023-03-21T06:42:37.160Z,55.67
2023-03-21T06:43:37.181Z,57.41
2023-03-21T06:44:37.138Z,61.49
2023-03-21T06:45:37.449Z,61.10
2023-03-21T06:46:37.144Z,55.91
2023-03-21T06:47:38.123Z,55.41
2023-03-21T06:48:37.133Z,56.67
2023-03-21T06:49:37.106Z,54.76
2023-03-21T06:50:37.096Z,62.71
2023-03-21T06:51:37.084Z,55.96
2023-03-21T06:52:37.085Z,55.75
2023-03-21T06:53:37.112Z,56.01
2023-03-21T06:54:37.064Z,52.42
2023-03-21T06:55:38.416Z,56.90
2023-03-21T06:56:37.056Z,56.06
2023-03-21T06:57:37.078Z,52.53
2023-03-21T06:58:37.059Z,57.38
2023-03-21T06:59:37.030Z,53.02
2023-03-21T07:00:37.073Z,53.27
2023-03-21T07:01:37.014Z,57.29
2023-03-21T07:02:38.061Z,57.25
2023-03-21T07:03:37.030Z,54.73
2023-03-21T07:04:36.982Z,53.02
2023-03-21T07:05:38.273Z,56.66
2023-03-21T07:06:36.996Z,55.32
2023-03-21T07:07:36.999Z,55.96
2023-03-21T07:08:37.029Z,54.64
2023-03-21T07:09:36.955Z,55.98
2023-03-21T07:10:36.944Z,55.45
2023-03-21T07:11:36.972Z,53.73
2023-03-21T07:12:36.939Z,56.78
2023-03-21T07:13:36.945Z,53.64
2023-03-21T07:14:36.917Z,52.70
2023-03-21T07:15:37.210Z,52.36
2023-03-21T07:16:36.920Z,56.87
2023-03-21T07:17:36.920Z,54.89
2023-03-21T07:18:36.912Z,53.84
2023-03-21T07:19:36.894Z,55.75
2023-03-21T07:20:36.934Z,54.81
2023-03-21T07:21:36.861Z,55.33
2023-03-21T07:22:36.953Z,48.75
2023-03-21T07:23:36.878Z,54.44
2023-03-21T07:24:36.851Z,54.12
2023-03-21T07:25:37.214Z,55.78
2023-03-21T07:26:36.874Z,57.25
2023-03-21T07:27:38.594Z,54.83
2023-03-21T07:28:36.847Z,54.63
2023-03-21T07:29:36.833Z,55.33
2023-03-21T07:30:36.814Z,52.71
2023-03-21T07:31:36.867Z,54.41
2023-03-21T07:32:36.797Z,53.85
2023-03-21T07:33:36.809Z,51.61
2023-03-21T07:34:36.770Z,53.43
2023-03-21T07:35:37.191Z,62.75
2023-03-21T07:36:36.760Z,50.75
2023-03-21T07:37:38.115Z,54.01
2023-03-21T07:38:37.820Z,50.86
2023-03-21T07:39:36.726Z,60.53
2023-03-21T07:40:37.076Z,53.68
2023-03-21T07:41:36.723Z,56.32
2023-03-21T07:42:36.728Z,57.71
2023-03-21T07:43:39.037Z,56.04
2023-03-21T07:44:36.700Z,56.26
2023-03-21T07:45:36.886Z,53.64
2023-03-21T07:46:36.678Z,56.15
2023-03-21T07:47:36.702Z,53.68
2023-03-21T07:48:36.683Z,55.16
2023-03-21T07:49:36.650Z,56.04
2023-03-21T07:50:36.731Z,52.37
2023-03-21T07:51:36.655Z,55.04
2023-03-21T07:52:36.665Z,56.10
2023-03-21T07:53:36.667Z,58.38
2023-03-21T07:54:36.609Z,55.34
2023-03-21T07:55:36.922Z,58.38
2023-03-21T07:56:36.606Z,53.98
2023-03-21T07:57:36.638Z,59.09
2023-03-21T07:58:36.610Z,54.17
2023-03-21T07:59:36.578Z,52.22
2023-03-21T08:00:36.573Z,57.38
2023-03-21T08:01:36.576Z,60.37
2023-03-21T08:02:36.612Z,53.78
2023-03-21T08:03:36.929Z,54.34
2023-03-21T08:04:36.538Z,59.71
2023-03-21T08:05:37.051Z,55.39
2023-03-21T08:06:36.531Z,54.75
2023-03-21T08:07:36.514Z,53.63
2023-03-21T08:08:36.537Z,53.78
2023-03-21T08:09:36.515Z,54.77
2023-03-21T08:10:36.480Z,55.88
2023-03-21T08:11:37.502Z,53.87
2023-03-21T08:12:36.492Z,56.71
2023-03-21T08:13:36.474Z,53.66
2023-03-21T08:14:36.497Z,56.44
2023-03-21T08:15:36.622Z,53.93
2023-03-21T08:16:37.482Z,56.89
2023-03-21T08:17:36.458Z,55.97
2023-03-21T08:18:36.427Z,48.41
2023-03-21T08:19:36.440Z,55.48
2023-03-21T08:20:36.420Z,53.15
2023-03-21T08:21:36.405Z,53.78
2023-03-21T08:22:36.393Z,53.25
2023-03-21T08:23:36.395Z,55.06
2023-03-21T08:24:36.411Z,51.80
2023-03-21T08:25:36.690Z,55.14
2023-03-21T08:26:36.369Z,55.57
2023-03-21T08:27:36.400Z,55.60
2023-03-21T08:28:36.389Z,52.25
2023-03-21T08:29:36.375Z,51.94
2023-03-21T08:30:36.375Z,55.47
2023-03-21T08:31:36.393Z,53.83
2023-03-21T08:32:36.323Z,50.67
2023-03-21T08:33:36.317Z,53.83
2023-03-21T08:34:36.367Z,54.77
2023-03-21T08:35:38.356Z,52.23
2023-03-21T08:36:36.285Z,55.94
2023-03-21T08:37:36.283Z,56.53
2023-03-21T08:38:36.269Z,50.70
2023-03-21T08:39:36.321Z,54.70
2023-03-21T08:40:36.252Z,56.08
2023-03-21T08:41:36.261Z,57.13
2023-03-21T08:42:36.242Z,53.40
2023-03-21T08:43:36.267Z,54.08
2023-03-21T08:44:36.258Z,56.53
2023-03-21T08:45:36.405Z,53.15
2023-03-21T08:46:36.263Z,56.16
2023-03-21T08:47:36.891Z,54.58
2023-03-21T08:48:36.195Z,53.96
2023-03-21T08:49:36.217Z,54.36
2023-03-21T08:50:36.176Z,56.64
2023-03-21T08:51:36.174Z,54.33
2023-03-21T08:52:36.170Z,52.16
2023-03-21T08:53:36.155Z,57.22
2023-03-21T08:54:36.170Z,56.83
2023-03-21T08:55:36.324Z,53.73
2023-03-21T08:56:37.473Z,51.94
2023-03-21T08:57:37.143Z,55.93
2023-03-21T08:58:36.117Z,59.20
2023-03-21T08:59:36.127Z,52.10
2023-03-21T09:00:36.098Z,53.99
2023-03-21T09:01:36.153Z,53.82
2023-03-21T09:02:36.096Z,55.72
2023-03-21T09:03:36.080Z,51.39
2023-03-21T09:04:36.128Z,54.86
2023-03-21T09:05:36.519Z,54.39
2023-03-21T09:06:36.361Z,52.60
2023-03-21T09:07:36.045Z,57.36
2023-03-21T09:08:36.040Z,55.73
2023-03-21T09:09:36.062Z,59.89
2023-03-21T09:10:36.028Z,55.78
2023-03-21T09:11:36.017Z,56.77
2023-03-21T09:12:36.040Z,53.74
2023-03-21T09:13:36.113Z,55.05
2023-03-21T09:14:36.049Z,51.97
2023-03-21T09:15:36.045Z,57.91
2023-03-21T09:16:35.982Z,54.68
2023-03-21T09:17:35.972Z,51.94
2023-03-21T09:18:35.960Z,58.76
2023-03-21T09:19:35.982Z,55.77
2023-03-21T09:20:35.961Z,51.99
2023-03-21T09:21:35.945Z,57.44
2023-03-21T09:22:35.957Z,52.15
2023-03-21T09:23:36.043Z,58.37
2023-03-21T09:24:35.992Z,52.47
2023-03-21T09:25:36.375Z,57.88
2023-03-21T09:26:35.916Z,55.06
2023-03-21T09:27:35.950Z,56.31
2023-03-21T09:28:35.921Z,59.71
2023-03-21T09:29:35.903Z,55.02
2023-03-21T09:30:35.880Z,55.07
2023-03-21T09:31:35.879Z,53.44
2023-03-21T09:32:35.861Z,53.31
2023-03-21T09:33:35.853Z,55.98
2023-03-21T09:34:35.865Z,53.60
2023-03-21T09:35:35.896Z,54.51
2023-03-21T09:36:35.840Z,53.63
2023-03-21T09:37:35.826Z,57.12
2023-03-21T09:38:35.936Z,56.17
2023-03-21T09:39:35.830Z,55.17
2023-03-21T09:40:35.800Z,52.69
2023-03-21T09:41:35.789Z,50.13
2023-03-21T09:42:35.788Z,52.60
2023-03-21T09:43:35.786Z,54.18
2023-03-21T09:44:35.793Z,61.57
2023-03-21T09:45:35.914Z,53.42
2023-03-21T09:46:35.809Z,54.83
2023-03-21T09:47:35.742Z,53.91
2023-03-21T09:48:37.670Z,54.01
2023-03-21T09:49:35.769Z,52.51
2023-03-21T09:50:35.726Z,51.58
2023-03-21T09:51:35.715Z,56.24
2023-03-21T09:52:35.703Z,55.89
2023-03-21T09:53:35.701Z,51.31
2023-03-21T09:54:35.717Z,59.82
2023-03-21T09:55:35.841Z,53.84
2023-03-21T09:56:35.674Z,54.26
2023-03-21T09:57:35.674Z,50.47
2023-03-21T09:58:35.702Z,51.64
2023-03-21T09:59:35.675Z,54.12
2023-03-21T10:00:35.720Z,54.45
2023-03-21T10:01:35.637Z,53.92
2023-03-21T10:02:35.624Z,54.57
2023-03-21T10:03:35.635Z,52.78
2023-03-21T10:04:35.643Z,54.95
2023-03-21T10:05:35.853Z,52.50
2023-03-21T10:06:35.618Z,56.10
2023-03-21T10:07:35.600Z,53.93
2023-03-21T10:08:35.630Z,54.92
2023-03-21T10:09:35.622Z,55.50
2023-03-21T10:10:35.643Z,52.87
2023-03-21T10:11:35.564Z,54.56
2023-03-21T10:12:35.552Z,54.85
2023-03-21T10:13:35.521Z,55.61
2023-03-21T10:14:36.567Z,55.12
2023-03-21T10:15:35.647Z,53.85
2023-03-21T10:16:35.593Z,58.54
2023-03-21T10:17:35.502Z,55.37
2023-03-21T10:18:35.499Z,54.16
2023-03-21T10:19:35.487Z,53.53
2023-03-21T10:20:35.501Z,60.19
2023-03-21T10:21:59.167Z,50.44
2023-03-21T10:22:37.487Z,56.86
2023-03-21T10:23:35.456Z,55.58
2023-03-21T10:24:35.470Z,55.39
2023-03-21T10:25:35.490Z,51.22
2023-03-21T10:26:35.442Z,54.88
2023-03-21T10:27:35.423Z,55.16
2023-03-21T10:28:49.872Z,55.53
2023-03-21T10:29:37.561Z,58.00
2023-03-21T10:30:35.431Z,58.70
2023-03-21T10:31:35.421Z,53.51
2023-03-21T10:32:35.400Z,52.15
2023-03-21T10:33:35.388Z,54.64
2023-03-21T10:34:35.388Z,51.56
2023-03-21T10:35:35.544Z,55.04
2023-03-21T10:36:35.370Z,57.49
2023-03-21T10:37:35.344Z,54.18
2023-03-21T10:38:35.355Z,56.93
2023-03-21T10:39:35.370Z,58.14
2023-03-21T10:40:35.707Z,52.12
2023-03-21T10:41:35.320Z,56.29
2023-03-21T10:42:35.316Z,56.92
2023-03-21T10:43:35.314Z,54.81
2023-03-21T10:44:35.294Z,54.25
2023-03-21T10:45:35.517Z,58.05
2023-03-21T10:46:36.354Z,51.32
2023-03-21T10:47:36.361Z,55.96
2023-03-21T10:48:35.368Z,54.35
2023-03-21T10:49:40.658Z,55.30
2023-03-21T10:50:37.315Z,58.17
2023-03-21T10:51:35.235Z,49.38
2023-03-21T10:52:35.234Z,52.19
2023-03-21T10:53:35.243Z,54.41
2023-03-21T10:54:35.206Z,53.20
2023-03-21T10:55:35.242Z,58.63
2023-03-21T10:56:35.251Z,52.29
2023-03-21T10:57:36.097Z,57.68
2023-03-21T10:58:36.108Z,52.35
2023-03-21T10:59:35.178Z,53.54
2023-03-21T11:00:35.201Z,58.66
2023-03-21T11:01:35.265Z,53.18
2023-03-21T11:02:35.197Z,50.66
2023-03-21T11:03:35.147Z,59.08
2023-03-21T11:04:35.135Z,54.75
2023-03-21T11:05:35.152Z,52.40
2023-03-21T11:06:35.119Z,51.84
2023-03-21T11:07:35.132Z,55.42
2023-03-21T11:08:35.108Z,53.67
2023-03-21T11:09:35.101Z,53.46
2023-03-21T11:10:35.129Z,54.25
2023-03-21T11:11:35.112Z,53.69
2023-03-21T11:12:35.082Z,53.81
2023-03-21T11:13:35.094Z,52.84
2023-03-21T11:14:35.056Z,54.18
2023-03-21T11:15:36.273Z,52.70
2023-03-21T11:16:35.107Z,53.16
2023-03-21T11:17:36.040Z,54.52
2023-03-21T11:18:35.107Z,58.92
2023-03-21T11:19:35.026Z,55.91
2023-03-21T11:20:35.070Z,57.20
2023-03-21T11:21:35.014Z,55.04
2023-03-21T11:22:35.002Z,53.16
2023-03-21T11:23:34.994Z,52.89
2023-03-21T11:24:34.999Z,61.03
2023-03-21T11:25:35.003Z,49.66
2023-03-21T11:26:34.973Z,54.30
2023-03-21T11:27:34.981Z,54.39
2023-03-21T11:28:34.957Z,53.58
2023-03-21T11:29:34.970Z,53.67
2023-03-21T11:30:35.004Z,55.06
2023-03-21T11:31:34.946Z,53.47
2023-03-21T11:32:34.941Z,57.17
2023-03-21T11:33:34.919Z,55.81
2023-03-21T11:34:34.912Z,50.90
2023-03-21T11:35:34.903Z,50.42
2023-03-21T11:36:34.927Z,51.07
2023-03-21T11:37:34.881Z,57.22
2023-03-21T11:38:34.878Z,56.57
2023-03-21T11:39:34.872Z,55.49
2023-03-21T11:40:34.870Z,50.86
2023-03-21T11:41:35.252Z,53.99
2023-03-21T11:42:34.854Z,49.67
2023-03-21T11:43:34.839Z,53.71
2023-03-21T11:44:34.838Z,57.93
2023-03-21T11:45:34.833Z,50.10
2023-03-21T11:46:34.921Z,46.63
2023-03-21T11:47:34.813Z,55.33
2023-03-21T11:48:34.810Z,54.06
2023-03-21T11:49:34.797Z,55.38
2023-03-21T11:50:34.801Z,58.95
2023-03-21T11:51:34.821Z,55.92
2023-03-21T11:52:34.783Z,56.65
2023-03-21T11:53:34.758Z,56.24
2023-03-21T11:54:34.762Z,56.54
2023-03-21T11:55:34.750Z,56.85
2023-03-21T11:56:34.777Z,55.83
2023-03-21T11:57:34.751Z,54.92
2023-03-21T11:58:34.748Z,55.18
2023-03-21T11:59:34.739Z,57.07
2023-03-21T12:00:34.715Z,51.12
2023-03-21T12:01:34.729Z,56.92
2023-03-21T12:02:34.756Z,56.28
2023-03-21T12:03:46.830Z,52.41
2023-03-21T12:04:36.698Z,54.61
2023-03-21T12:05:34.679Z,54.00
2023-03-21T12:06:34.686Z,59.97
2023-03-21T12:07:34.650Z,54.32
2023-03-21T12:08:34.649Z,53.01
2023-03-21T12:09:34.650Z,46.77
2023-03-21T12:10:34.638Z,55.18
2023-03-21T12:11:34.657Z,54.18
2023-03-21T12:12:39.138Z,53.50
2023-03-21T12:13:35.613Z,53.00
2023-03-21T12:14:34.605Z,54.69
2023-03-21T12:15:34.601Z,54.51
2023-03-21T12:16:34.680Z,53.71
2023-03-21T12:17:34.665Z,52.17
2023-03-21T12:18:34.580Z,54.88
2023-03-21T12:19:34.564Z,54.67
2023-03-21T12:20:34.549Z,56.21
2023-03-21T12:21:35.575Z,56.97
2023-03-21T12:22:34.550Z,55.21
2023-03-21T12:23:34.629Z,55.45
2023-03-21T12:24:34.561Z,53.12
2023-03-21T12:25:34.598Z,52.40
2023-03-21T12:26:34.540Z,56.53
2023-03-21T12:27:34.506Z,55.20
2023-03-21T12:28:34.508Z,54.81
2023-03-21T12:29:34.485Z,50.90
2023-03-21T12:30:34.556Z,55.15
2023-03-21T12:31:34.633Z,57.68
2023-03-21T12:32:35.598Z,52.21
2023-03-21T12:33:35.461Z,55.27
2023-03-21T12:34:34.508Z,54.40
2023-03-21T12:35:34.487Z,56.40
2023-03-21T12:36:34.463Z,51.22
2023-03-21T12:37:34.429Z,56.00
2023-03-21T12:38:34.423Z,53.19
2023-03-21T12:39:34.436Z,57.18
2023-03-21T12:40:34.398Z,53.35
2023-03-21T12:41:34.396Z,55.89
2023-03-21T12:42:35.422Z,52.82
2023-03-21T12:43:34.403Z,53.99
2023-03-21T12:44:34.379Z,59.16
2023-03-21T12:45:45.790Z,56.02
2023-03-21T12:46:36.513Z,57.49
2023-03-21T12:47:34.389Z,53.76
2023-03-21T12:48:34.340Z,54.05
2023-03-21T12:49:34.373Z,53.36
2023-03-21T12:50:34.333Z,55.67
2023-03-21T12:51:34.320Z,51.48
2023-03-21T12:52:34.334Z,52.81